Time;durP1;ratioP1;P1;durP2;ratioP2;P2;SDS_P1;SDS_P2;PMS_P1;PMS_P2;Temp;Humidity;BMP_temperature;BMP_pressure;BME280_temperature;BME280_humidity;BME280_pressure;Samples;Min_cycle;Max_cycle;Signal;HPM_P1;HPM_P2
2022/09/22 00:00:18;;;;;;;;;;;8.90;99.90;;;;;;5011083;28;20347;-88
2022/09/22 00:02:45;;;;;;;;;;;8.90;99.90;;;;;;5023313;28;20062;-83
2022/09/22 00:05:12;;;;;;;;;;;8.90;99.90;;;;;;5029328;28;19936;-93
2022/09/22 00:07:38;;;;;;;;;;;8.80;99.90;;;;;;5014274;28;19924;-91
2022/09/22 00:10:04;;;;;;;;;;;8.80;99.90;;;;;;5018691;28;19950;-91
2022/09/22 00:12:34;;;;;;;;;;;8.80;99.90;;;;;;5034839;28;19982;-80
2022/09/22 00:15:00;;;;;;;;;;;8.80;99.90;;;;;;5041160;28;19928;-87
2022/09/22 00:17:26;;;;;;;;;;;8.80;99.90;;;;;;5076516;28;20307;-80
2022/09/22 00:19:52;;;;;;;;;;;8.80;99.90;;;;;;5016195;28;19929;-81
2022/09/22 00:22:17;;;;;;;;;;;8.70;99.90;;;;;;5015116;28;19932;-85
2022/09/22 00:24:44;;;;;;;;;;;8.80;99.90;;;;;;5031826;28;19928;-79
2022/09/22 00:27:12;;;;;;;;;;;8.80;99.90;;;;;;5046615;28;19982;-83
2022/09/22 00:29:38;;;;;;;;;;;8.70;99.90;;;;;;5070779;28;20004;-82
2022/09/22 00:32:04;;;;;;;;;;;8.70;99.90;;;;;;5028287;28;19967;-80
2022/09/22 00:34:30;;;;;;;;;;;8.70;99.90;;;;;;5047705;28;19932;-82
2022/09/22 00:36:56;;;;;;;;;;;8.70;99.90;;;;;;5013219;28;20015;-84
2022/09/22 00:39:21;;;;;;;;;;;8.60;99.90;;;;;;5015207;28;19932;-84
2022/09/22 00:41:50;;;;;;;;;;;8.70;99.90;;;;;;5049260;28;20014;-86
2022/09/22 00:44:31;;;;;;;;;;;8.70;99.90;;;;;;5031945;28;20609;-81
2022/09/22 00:47:18;;;;;;;;;;;8.70;99.90;;;;;;5035095;28;19925;-81
2022/09/22 00:49:46;;;;;;;;;;;8.70;99.90;;;;;;5036388;28;19939;-80
2022/09/22 00:52:14;;;;;;;;;;;8.70;99.90;;;;;;5052767;28;20379;-81
2022/09/22 00:54:41;;;;;;;;;;;8.70;99.90;;;;;;5044875;28;19932;-81
2022/09/22 00:57:12;;;;;;;;;;;8.70;99.90;;;;;;5034696;28;19937;-82
2022/09/22 00:59:38;;;;;;;;;;;8.60;99.90;;;;;;5050673;28;19986;-82
2022/09/22 01:02:05;;;;;;;;;;;8.60;99.90;;;;;;5054152;28;19924;-81
2022/09/22 01:04:31;;;;;;;;;;;8.60;99.90;;;;;;5034744;28;20606;-81
2022/09/22 01:06:57;;;;;;;;;;;8.60;99.90;;;;;;5037023;28;19928;-84
2022/09/22 01:09:23;;;;;;;;;;;8.60;99.90;;;;;;5037280;28;20138;-83
2022/09/22 01:11:50;;;;;;;;;;;8.60;99.90;;;;;;5034706;28;20014;-84
2022/09/22 01:14:48;;;;;;;;;;;8.60;99.90;;;;;;5039198;28;19934;-79
2022/09/22 01:17:20;;;;;;;;;;;8.60;99.90;;;;;;4976657;28;20005;-84
2022/09/22 01:20:05;;;;;;;;;;;8.60;99.90;;;;;;5037303;28;20054;-85
2022/09/22 01:22:55;;;;;;;;;;;8.70;99.90;;;;;;5037545;28;19925;-80
2022/09/22 01:25:42;;;;;;;;;;;8.70;99.90;;;;;;5055395;28;19931;-87
2022/09/22 01:28:16;;;;;;;;;;;8.70;99.90;;;;;;5038671;28;19931;-80
2022/09/22 01:30:47;;;;;;;;;;;8.70;99.90;;;;;;5060802;28;19924;-80
2022/09/22 01:33:22;;;;;;;;;;;8.70;99.90;;;;;;5053910;28;19928;-89
2022/09/22 01:36:03;;;;;;;;;;;8.70;99.90;;;;;;5037210;28;19936;-83
2022/09/22 01:38:32;;;;;;;;;;;8.70;99.90;;;;;;5031500;28;19989;-90
2022/09/22 01:41:18;;;;;;;;;;;8.70;99.90;;;;;;5034965;28;19951;-81
2022/09/22 01:43:58;;;;;;;;;;;8.70;99.90;;;;;;5062989;28;19932;-83
2022/09/22 01:46:27;;;;;;;;;;;8.70;99.90;;;;;;5040064;28;19932;-90
2022/09/22 01:48:54;;;;;;;;;;;8.70;99.90;;;;;;5027273;28;20446;-84
2022/09/22 01:51:25;;;;;;;;;;;8.60;99.90;;;;;;5034589;28;19938;-81
2022/09/22 01:53:55;;;;;;;;;;;8.60;99.90;;;;;;5033813;28;19932;-83
2022/09/22 01:56:24;;;;;;;;;;;8.60;99.90;;;;;;5034786;28;20450;-86
2022/09/22 01:58:56;;;;;;;;;;;8.60;99.90;;;;;;5037159;28;20583;-88
2022/09/22 02:01:25;;;;;;;;;;;8.50;99.90;;;;;;5052304;28;19989;-82
2022/09/22 02:03:58;;;;;;;;;;;8.60;99.90;;;;;;5052426;28;20401;-82
2022/09/22 02:08:55;;;;;;;;;;;8.60;99.90;;;;;;5105437;22;19932;-78
2022/09/22 02:11:21;;;;;;;;;;;8.60;99.90;;;;;;5048492;28;19982;-78
2022/09/22 02:13:47;;;;;;;;;;;8.50;99.90;;;;;;5032693;28;20379;-79
2022/09/22 02:16:14;;;;;;;;;;;8.50;99.90;;;;;;5043591;28;19944;-78
2022/09/22 02:18:52;;;;;;;;;;;8.50;99.90;;;;;;5032843;28;19929;-80
2022/09/22 02:21:19;;;;;;;;;;;8.50;99.90;;;;;;5058019;28;20016;-81
2022/09/22 02:23:46;;;;;;;;;;;8.50;99.90;;;;;;5050079;28;19924;-79
2022/09/22 02:26:14;;;;;;;;;;;8.50;99.90;;;;;;5048564;28;19924;-80
2022/09/22 02:28:42;;;;;;;;;;;8.50;99.90;;;;;;5054823;28;20456;-78
2022/09/22 02:31:09;;;;;;;;;;;8.50;99.90;;;;;;5050014;28;19955;-79
2022/09/22 02:33:37;;;;;;;;;;;8.50;99.90;;;;;;5021112;28;19936;-79
2022/09/22 02:36:19;;;;;;;;;;;8.40;99.90;;;;;;5030497;28;19971;-80
2022/09/22 02:38:56;;;;;;;;;;;8.50;99.90;;;;;;5032137;28;19924;-79
2022/09/22 02:41:28;;;;;;;;;;;8.40;99.90;;;;;;5063816;28;19964;-79
2022/09/22 02:44:07;;;;;;;;;;;8.40;99.90;;;;;;5049250;28;19925;-79
2022/09/22 02:46:40;;;;;;;;;;;8.30;99.90;;;;;;5043279;28;19947;-78
2022/09/22 02:49:08;;;;;;;;;;;8.30;99.90;;;;;;5045901;28;20544;-78
2022/09/22 02:51:34;;;;;;;;;;;8.20;99.90;;;;;;5040411;28;19929;-79
2022/09/22 02:54:00;;;;;;;;;;;8.10;99.90;;;;;;5033261;28;19971;-82
2022/09/22 02:56:27;;;;;;;;;;;8.10;99.90;;;;;;5048784;28;19925;-79
2022/09/22 02:58:52;;;;;;;;;;;8.10;99.90;;;;;;5027690;28;20540;-80
2022/09/22 03:01:18;;;;;;;;;;;8.00;99.90;;;;;;5026880;28;20031;-78
2022/09/22 03:03:44;;;;;;;;;;;8.10;99.90;;;;;;5027528;28;19925;-82
2022/09/22 03:06:10;;;;;;;;;;;8.10;99.90;;;;;;5048948;28;19925;-79
2022/09/22 03:08:36;;;;;;;;;;;8.00;99.90;;;;;;5031445;28;20064;-79
2022/09/22 03:11:03;;;;;;;;;;;8.00;99.90;;;;;;5028751;28;19932;-79
2022/09/22 03:13:29;;;;;;;;;;;8.00;99.90;;;;;;5049047;28;19927;-78
2022/09/22 03:15:55;;;;;;;;;;;7.90;99.90;;;;;;5046541;28;19928;-78
2022/09/22 03:18:20;;;;;;;;;;;7.90;99.90;;;;;;5032942;28;19921;-79
2022/09/22 03:20:46;;;;;;;;;;;7.80;99.90;;;;;;5016172;28;19986;-81
2022/09/22 03:23:13;;;;;;;;;;;7.80;99.90;;;;;;5026565;28;19928;-81
2022/09/22 03:25:39;;;;;;;;;;;7.70;99.90;;;;;;5048761;28;19928;-79
2022/09/22 03:28:05;;;;;;;;;;;7.70;99.90;;;;;;5048821;28;20446;-79
2022/09/22 03:30:30;;;;;;;;;;;7.60;99.90;;;;;;5034185;28;19920;-78
2022/09/22 03:32:56;;;;;;;;;;;7.60;99.90;;;;;;5032410;28;19928;-85
2022/09/22 03:35:22;;;;;;;;;;;7.60;99.90;;;;;;5062198;28;19924;-78
2022/09/22 03:37:48;;;;;;;;;;;7.60;99.90;;;;;;5050745;28;20600;-81
2022/09/22 03:40:14;;;;;;;;;;;7.60;99.90;;;;;;5045343;28;22061;-79
2022/09/22 03:42:39;;;;;;;;;;;7.60;99.90;;;;;;5045967;28;19950;-79
2022/09/22 03:45:05;;;;;;;;;;;7.60;99.90;;;;;;5032861;28;20583;-80
2022/09/22 03:47:31;;;;;;;;;;;7.60;99.90;;;;;;5034404;28;19931;-83
2022/09/22 03:49:57;;;;;;;;;;;7.60;99.90;;;;;;5013527;28;19929;-87
2022/09/22 03:52:24;;;;;;;;;;;7.50;99.90;;;;;;5050718;28;20031;-79
2022/09/22 03:54:51;;;;;;;;;;;7.50;99.90;;;;;;5047516;28;20302;-79
2022/09/22 03:57:17;;;;;;;;;;;7.50;99.90;;;;;;5030955;28;19924;-80
2022/09/22 03:59:43;;;;;;;;;;;7.40;99.90;;;;;;5032488;28;19928;-83
2022/09/22 04:02:09;;;;;;;;;;;7.40;99.90;;;;;;5047282;28;20410;-78
2022/09/22 04:04:35;;;;;;;;;;;7.30;99.90;;;;;;5048367;28;19935;-80
2022/09/22 04:07:01;;;;;;;;;;;7.30;99.90;;;;;;5014439;28;20000;-80
2022/09/22 04:09:27;;;;;;;;;;;7.30;99.90;;;;;;5047787;28;20023;-78
2022/09/22 04:11:53;;;;;;;;;;;7.30;99.90;;;;;;5044202;28;20750;-80
2022/09/22 04:14:20;;;;;;;;;;;7.30;99.90;;;;;;5044581;28;19950;-86
2022/09/22 04:17:06;;;;;;;;;;;7.20;99.90;;;;;;5043636;28;19936;-86
2022/09/22 04:22:21;;;;;;;;;;;7.20;99.90;;;;;;5045568;28;19932;-89
2022/09/22 04:24:47;;;;;;;;;;;7.20;99.90;;;;;;5043958;28;19925;-88
2022/09/22 04:27:34;;;;;;;;;;;7.30;99.90;;;;;;5052635;28;20356;-90
2022/09/22 04:30:01;;;;;;;;;;;7.20;99.90;;;;;;5037187;28;19958;-89
2022/09/22 04:32:28;;;;;;;;;;;7.20;99.90;;;;;;5035418;28;19948;-89
2022/09/22 04:34:54;;;;;;;;;;;7.20;99.90;;;;;;5036440;28;19971;-87
2022/09/22 04:37:22;;;;;;;;;;;7.20;99.90;;;;;;5069903;28;19971;-87
2022/09/22 04:39:48;;;;;;;;;;;7.20;99.90;;;;;;5051449;28;19936;-77
2022/09/22 04:42:17;;;;;;;;;;;7.20;99.90;;;;;;5036560;28;19924;-88
2022/09/22 04:44:43;;;;;;;;;;;7.20;99.90;;;;;;5036599;28;20015;-90
2022/09/22 04:47:08;;;;;;;;;;;7.20;99.90;;;;;;5049027;28;19944;-90
2022/09/22 04:49:35;;;;;;;;;;;7.10;99.90;;;;;;5044613;28;19924;-90
2022/09/22 04:52:03;;;;;;;;;;;7.10;99.90;;;;;;5036612;28;19924;-90
2022/09/22 04:54:30;;;;;;;;;;;7.10;99.90;;;;;;5045725;28;19935;-83
2022/09/22 04:56:56;;;;;;;;;;;7.10;99.90;;;;;;5047556;28;19925;-89
2022/09/22 04:59:22;;;;;;;;;;;7.10;99.90;;;;;;5026536;28;19928;-78
2022/09/22 05:01:48;;;;;;;;;;;7.10;99.90;;;;;;5037421;28;20433;-78
2022/09/22 05:04:13;;;;;;;;;;;7.10;99.90;;;;;;5028479;28;20459;-83
2022/09/22 05:06:41;;;;;;;;;;;7.10;99.90;;;;;;5040002;28;19935;-78
2022/09/22 05:09:06;;;;;;;;;;;7.10;99.90;;;;;;5022766;28;19939;-78
2022/09/22 05:11:33;;;;;;;;;;;7.10;99.90;;;;;;5032073;28;19925;-77
2022/09/22 05:13:58;;;;;;;;;;;7.10;99.90;;;;;;5039150;28;20393;-78
2022/09/22 05:16:25;;;;;;;;;;;7.10;99.90;;;;;;5037264;28;20020;-78
2022/09/22 05:18:51;;;;;;;;;;;7.10;99.90;;;;;;5037649;28;19925;-81
2022/09/22 05:21:17;;;;;;;;;;;7.10;99.90;;;;;;5031642;28;20300;-78
2022/09/22 05:23:43;;;;;;;;;;;7.10;99.90;;;;;;5025356;28;19928;-79
2022/09/22 05:26:09;;;;;;;;;;;7.00;99.90;;;;;;5038365;28;19929;-79
2022/09/22 05:28:35;;;;;;;;;;;7.00;99.90;;;;;;5042846;28;19934;-79
2022/09/22 05:31:02;;;;;;;;;;;7.00;99.90;;;;;;5025957;28;19925;-79
2022/09/22 05:33:28;;;;;;;;;;;7.00;99.90;;;;;;5043467;28;19985;-79
2022/09/22 05:35:53;;;;;;;;;;;7.00;99.90;;;;;;5036820;28;20380;-81
2022/09/22 05:38:19;;;;;;;;;;;7.00;99.90;;;;;;5062896;28;19925;-82
2022/09/22 05:40:46;;;;;;;;;;;7.00;99.90;;;;;;5046829;28;20352;-83
2022/09/22 05:43:12;;;;;;;;;;;7.00;99.90;;;;;;5044414;28;19931;-79
2022/09/22 05:45:38;;;;;;;;;;;7.00;99.90;;;;;;5042478;28;20464;-79
2022/09/22 05:48:04;;;;;;;;;;;7.00;99.90;;;;;;5041651;28;19931;-79
2022/09/22 05:50:30;;;;;;;;;;;7.00;99.90;;;;;;5043709;28;19986;-80
2022/09/22 05:53:07;;;;;;;;;;;7.10;99.90;;;;;;5047260;28;20301;-81
2022/09/22 05:55:34;;;;;;;;;;;7.10;99.90;;;;;;5056451;28;19947;-82
2022/09/22 05:58:08;;;;;;;;;;;7.20;99.90;;;;;;5046017;28;19954;-80
2022/09/22 06:00:34;;;;;;;;;;;7.20;99.90;;;;;;5047038;28;19925;-79
2022/09/22 06:02:59;;;;;;;;;;;7.20;99.90;;;;;;5030476;28;19970;-77
2022/09/22 06:05:25;;;;;;;;;;;7.20;99.90;;;;;;5047498;28;19936;-76
2022/09/22 06:07:58;;;;;;;;;;;7.30;99.90;;;;;;5013798;28;19933;-76
2022/09/22 06:10:24;;;;;;;;;;;7.30;99.90;;;;;;5051819;28;20481;-77
2022/09/22 06:12:50;;;;;;;;;;;7.40;99.90;;;;;;5038512;28;19924;-76
2022/09/22 06:15:16;;;;;;;;;;;7.40;99.90;;;;;;5014477;28;19924;-77
2022/09/22 06:17:42;;;;;;;;;;;7.40;99.90;;;;;;5050319;28;19924;-77
2022/09/22 06:20:08;;;;;;;;;;;7.50;99.90;;;;;;5046204;28;20031;-78
2022/09/22 06:22:36;;;;;;;;;;;7.50;99.90;;;;;;5060326;28;20545;-75
2022/09/22 06:25:02;;;;;;;;;;;7.60;99.90;;;;;;5047807;28;19971;-78
2022/09/22 06:27:27;;;;;;;;;;;7.60;99.90;;;;;;5049863;28;19925;-80
2022/09/22 06:30:12;;;;;;;;;;;7.70;99.90;;;;;;5035524;28;19925;-89
2022/09/22 06:32:38;;;;;;;;;;;7.80;99.90;;;;;;5051220;28;19928;-78
2022/09/22 06:35:24;;;;;;;;;;;7.90;99.90;;;;;;5053730;28;19960;-90
2022/09/22 06:37:55;;;;;;;;;;;8.00;99.90;;;;;;5042189;28;20501;-85
2022/09/22 06:40:22;;;;;;;;;;;8.10;99.90;;;;;;5033831;28;19925;-86
2022/09/22 06:42:55;;;;;;;;;;;8.20;99.90;;;;;;5046390;28;19928;-89
2022/09/22 06:45:20;;;;;;;;;;;8.30;99.90;;;;;;5040402;28;19928;-78
2022/09/22 06:47:47;;;;;;;;;;;;;;;;;;5044604;28;19932;-80
2022/09/22 06:50:12;;;;;;;;;;;8.70;99.90;;;;;;5052144;28;20352;-90
2022/09/22 06:52:40;;;;;;;;;;;8.70;99.90;;;;;;5046177;28;19933;-93
2022/09/22 06:55:06;;;;;;;;;;;8.90;99.90;;;;;;5019253;28;19924;-88
2022/09/22 06:57:32;;;;;;;;;;;9.00;99.90;;;;;;5031900;28;19931;-79
2022/09/22 06:59:59;;;;;;;;;;;9.10;99.90;;;;;;5035810;28;19924;-88
2022/09/22 07:02:27;;;;;;;;;;;9.20;99.90;;;;;;5035493;28;19924;-75
2022/09/22 07:04:53;;;;;;;;;;;;;;;;;;5024170;28;19928;-75
2022/09/22 07:07:18;;;;;;;;;;;9.40;99.90;;;;;;5052044;28;20410;-82
2022/09/22 07:09:45;;;;;;;;;;;9.60;99.90;;;;;;5036389;28;19924;-77
2022/09/22 07:12:10;;;;;;;;;;;9.60;99.90;;;;;;5018657;28;20058;-82
2022/09/22 07:14:36;;;;;;;;;;;9.70;99.90;;;;;;5016852;28;19968;-75
2022/09/22 07:17:02;;;;;;;;;;;9.90;99.90;;;;;;5030267;28;19940;-76
2022/09/22 07:19:31;;;;;;;;;;;10.10;99.90;;;;;;5048791;28;19935;-77
2022/09/22 07:21:57;;;;;;;;;;;10.40;99.90;;;;;;5038507;28;19936;-78
2022/09/22 07:24:23;;;;;;;;;;;10.60;99.90;;;;;;5013746;28;19933;-79
2022/09/22 07:26:50;;;;;;;;;;;10.90;99.90;;;;;;5046307;28;20019;-77
2022/09/22 07:29:16;;;;;;;;;;;11.30;99.90;;;;;;5049341;28;19924;-77
2022/09/22 07:31:43;;;;;;;;;;;11.60;99.90;;;;;;5026365;28;19929;-80
2022/09/22 07:34:09;;;;;;;;;;;11.70;99.90;;;;;;5014586;28;19928;-79
2022/09/22 07:36:38;;;;;;;;;;;11.80;99.90;;;;;;5014526;28;20040;-84
2022/09/22 07:39:06;;;;;;;;;;;11.90;99.90;;;;;;5063097;28;20287;-85
2022/09/22 07:41:40;;;;;;;;;;;12.00;99.90;;;;;;5045236;28;19930;-83
2022/09/22 07:46:51;;;;;;;;;;;12.50;99.90;;;;;;5045565;28;19924;-80
2022/09/22 07:49:18;;;;;;;;;;;12.50;99.90;;;;;;5033929;28;20286;-79
2022/09/22 07:51:56;;;;;;;;;;;12.50;99.90;;;;;;5031698;28;19925;-78
2022/09/22 07:55:00;;;;;;;;;;;13.30;99.90;;;;;;5062324;28;19933;-77
2022/09/22 07:57:29;;;;;;;;;;;;;;;;;;5051507;28;20312;-78
2022/09/22 08:00:17;;;;;;;;;;;15.90;99.90;;;;;;5036927;28;19925;-79
2022/09/22 08:02:43;;;;;;;;;;;16.90;99.90;;;;;;5047042;28;19925;-78
2022/09/22 08:05:15;;;;;;;;;;;17.60;99.90;;;;;;5036174;28;20385;-77
2022/09/22 08:07:42;;;;;;;;;;;17.80;99.90;;;;;;5053855;28;19988;-78
2022/09/22 08:10:09;;;;;;;;;;;17.60;99.90;;;;;;5034365;28;19932;-77
2022/09/22 08:12:37;;;;;;;;;;;17.70;99.90;;;;;;5025804;28;19925;-77
2022/09/22 08:15:05;;;;;;;;;;;17.60;99.90;;;;;;5028795;28;20208;-78
2022/09/22 08:17:31;;;;;;;;;;;17.80;99.90;;;;;;5045698;28;20004;-77
2022/09/22 08:19:58;;;;;;;;;;;18.40;99.90;;;;;;5031613;28;19932;-77
2022/09/22 08:22:24;;;;;;;;;;;18.70;99.90;;;;;;5038949;28;19971;-78
2022/09/22 08:24:49;;;;;;;;;;;18.80;99.90;;;;;;5031412;28;19929;-78
2022/09/22 08:27:15;;;;;;;;;;;18.90;99.90;;;;;;5044528;28;19928;-78
2022/09/22 08:29:42;;;;;;;;;;;18.80;99.90;;;;;;5039738;28;19925;-77
2022/09/22 08:32:08;;;;;;;;;;;18.50;99.90;;;;;;5056993;28;19944;-78
2022/09/22 08:34:34;;;;;;;;;;;18.30;99.90;;;;;;5039861;28;19981;-81
2022/09/22 08:36:59;;;;;;;;;;;18.00;99.90;;;;;;5031871;28;19925;-77
2022/09/22 08:39:29;;;;;;;;;;;17.50;99.90;;;;;;5021327;28;19929;-77
2022/09/22 08:42:04;;;;;;;;;;;17.40;99.90;;;;;;5024959;28;19935;-76
2022/09/22 08:44:59;;;;;;;;;;;17.20;99.90;;;;;;5065934;28;19925;-78
2022/09/22 08:53:24;;;;;;;;;;;16.90;99.90;;;;;;5046986;28;19928;-80
2022/09/22 08:55:54;;;;;;;;;;;16.90;99.90;;;;;;5046743;28;20536;-77
2022/09/22 08:58:23;;;;;;;;;;;17.10;99.90;;;;;;5047461;28;19925;-77
2022/09/22 09:00:58;;;;;;;;;;;17.10;99.90;;;;;;5047773;28;19931;-80
2022/09/22 09:03:24;;;;;;;;;;;17.30;99.90;;;;;;5066072;28;19932;-81
2022/09/22 09:06:00;;;;;;;;;;;17.30;99.90;;;;;;5045822;28;19925;-86
2022/09/22 09:08:32;;;;;;;;;;;17.40;99.90;;;;;;5055295;28;19935;-88
2022/09/22 09:11:06;;;;;;;;;;;17.50;99.90;;;;;;5070948;28;19928;-80
2022/09/22 09:13:47;;;;;;;;;;;17.50;99.90;;;;;;5053299;28;19924;-90
2022/09/22 09:16:32;;;;;;;;;;;17.50;99.90;;;;;;5066537;28;20424;-80
2022/09/22 09:19:05;;;;;;;;;;;17.70;99.90;;;;;;5035000;28;19924;-78
2022/09/22 09:21:33;;;;;;;;;;;17.80;99.90;;;;;;5048988;28;20348;-79
2022/09/22 09:24:02;;;;;;;;;;;17.90;99.90;;;;;;5047691;28;20354;-79
2022/09/22 09:26:28;;;;;;;;;;;17.80;99.90;;;;;;5052598;28;19924;-88
2022/09/22 09:28:56;;;;;;;;;;;17.80;99.90;;;;;;5046805;28;19931;-80
2022/09/22 09:31:26;;;;;;;;;;;17.80;99.90;;;;;;5037941;28;19950;-80
2022/09/22 09:34:04;;;;;;;;;;;17.80;99.90;;;;;;5053622;28;19928;-80
2022/09/22 09:36:38;;;;;;;;;;;17.90;99.90;;;;;;5036102;28;19924;-92
2022/09/22 09:39:11;;;;;;;;;;;18.00;99.90;;;;;;5038384;28;19956;-83
2022/09/22 09:41:38;;;;;;;;;;;18.00;99.90;;;;;;5043730;28;19925;-81
2022/09/22 09:44:22;;;;;;;;;;;18.00;99.90;;;;;;5038674;28;19908;-85
2022/09/22 09:47:10;;;;;;;;;;;17.90;99.90;;;;;;5038818;28;19956;-88
2022/09/22 09:49:37;;;;;;;;;;;18.10;99.90;;;;;;5036882;28;19974;-88
2022/09/22 09:52:05;;;;;;;;;;;18.00;99.90;;;;;;5053471;28;19958;-79
2022/09/22 09:54:31;;;;;;;;;;;18.10;99.90;;;;;;5046531;28;20550;-82
2022/09/22 09:57:03;;;;;;;;;;;18.10;99.90;;;;;;5052907;28;20531;-88
2022/09/22 10:02:16;;;;;;;;;;;18.30;99.90;;;;;;5025860;28;19925;-92
2022/09/22 10:04:47;;;;;;;;;;;18.30;99.90;;;;;;5050223;28;19931;-79
2022/09/22 10:07:20;;;;;;;;;;;18.30;99.90;;;;;;5030962;28;19929;-87
2022/09/22 10:09:49;;;;;;;;;;;18.30;99.90;;;;;;5046638;28;19987;-85
2022/09/22 10:12:20;;;;;;;;;;;18.30;99.90;;;;;;5027379;28;20020;-87
2022/09/22 10:14:54;;;;;;;;;;;18.40;99.90;;;;;;5051053;28;19979;-80
2022/09/22 10:17:22;;;;;;;;;;;18.50;99.90;;;;;;5050137;28;19940;-81
2022/09/22 10:19:49;;;;;;;;;;;18.50;99.90;;;;;;5049453;28;20008;-83
2022/09/22 10:22:20;;;;;;;;;;;18.60;99.90;;;;;;5048767;28;19963;-79
2022/09/22 10:24:52;;;;;;;;;;;18.70;99.90;;;;;;5047545;28;19924;-80
2022/09/22 10:27:23;;;;;;;;;;;18.80;99.90;;;;;;5037588;28;20001;-83
2022/09/22 10:30:12;;;;;;;;;;;18.80;99.90;;;;;;5045392;28;19924;-82
2022/09/22 10:32:38;;;;;;;;;;;18.90;99.90;;;;;;5045142;28;19947;-80
2022/09/22 10:35:23;;;;;;;;;;;19.00;99.90;;;;;;5027027;28;20010;-79
2022/09/22 10:37:49;;;;;;;;;;;19.00;99.90;;;;;;5045100;28;20015;-80
2022/09/22 10:40:17;;;;;;;;;;;19.10;99.90;;;;;;5015577;28;19929;-78
2022/09/22 10:42:46;;;;;;;;;;;19.20;99.90;;;;;;5046465;28;20466;-84
2022/09/22 10:45:14;;;;;;;;;;;19.20;99.90;;;;;;5058212;28;19921;-81
2022/09/22 10:47:57;;;;;;;;;;;19.20;99.90;;;;;;5049137;28;19990;-79
2022/09/22 10:50:56;;;;;;;;;;;19.20;99.90;;;;;;5043759;28;19921;-79
2022/09/22 10:53:45;;;;;;;;;;;19.30;99.90;;;;;;4998634;28;19974;-78
2022/09/22 10:56:30;;;;;;;;;;;19.40;99.90;;;;;;5021119;28;19931;-79
2022/09/22 10:59:14;;;;;;;;;;;19.20;99.90;;;;;;5026697;28;20368;-78
2022/09/22 11:02:03;;;;;;;;;;;19.10;99.90;;;;;;5040323;28;20548;-79
2022/09/22 11:04:40;;;;;;;;;;;19.20;99.90;;;;;;5014598;28;19964;-77
2022/09/22 11:12:58;;;;;;;;;;;19.40;99.90;;;;;;5043778;28;19978;-77
2022/09/22 11:15:33;;;;;;;;;;;19.50;99.90;;;;;;5036874;28;20016;-78
2022/09/22 11:18:18;;;;;;;;;;;19.50;99.90;;;;;;5032446;28;20015;-77
2022/09/22 11:20:45;;;;;;;;;;;19.50;99.90;;;;;;5040669;28;19931;-77
2022/09/22 11:23:19;;;;;;;;;;;19.60;99.70;;;;;;5063256;28;19947;-80
2022/09/22 11:26:18;;;;;;;;;;;19.70;99.90;;;;;;5044120;28;19931;-79
2022/09/22 11:28:50;;;;;;;;;;;19.40;98.40;;;;;;5025490;28;20379;-77
2022/09/22 11:31:35;;;;;;;;;;;19.40;99.90;;;;;;5043647;28;19967;-78
2022/09/22 11:34:08;;;;;;;;;;;19.30;98.10;;;;;;5041456;28;19956;-77
2022/09/22 11:36:47;;;;;;;;;;;19.20;99.10;;;;;;5048368;28;19928;-78
2022/09/22 11:39:32;;;;;;;;;;;19.00;98.30;;;;;;5040306;28;19932;-78
2022/09/22 11:42:10;;;;;;;;;;;18.80;99.90;;;;;;5038192;28;19981;-80
2022/09/22 11:44:48;;;;;;;;;;;18.80;99.90;;;;;;5041093;28;19933;-80
2022/09/22 11:47:25;;;;;;;;;;;18.70;99.90;;;;;;5044249;28;19949;-78
2022/09/22 11:50:11;;;;;;;;;;;18.80;99.90;;;;;;5042043;28;19982;-79
2022/09/22 11:52:42;;;;;;;;;;;18.90;99.90;;;;;;5063956;28;20457;-80
2022/09/22 11:55:19;;;;;;;;;;;19.00;99.10;;;;;;5017291;28;19940;-79
2022/09/22 11:57:49;;;;;;;;;;;19.00;99.50;;;;;;5042678;28;20577;-77
2022/09/22 12:00:17;;;;;;;;;;;19.00;99.90;;;;;;5038763;28;19925;-78
2022/09/22 12:03:13;;;;;;;;;;;18.80;99.00;;;;;;5027736;28;20407;-79
2022/09/22 12:05:57;;;;;;;;;;;18.60;99.90;;;;;;5017389;28;20005;-78
2022/09/22 12:08:27;;;;;;;;;;;18.50;99.90;;;;;;5038749;28;19937;-82
2022/09/22 12:10:54;;;;;;;;;;;18.40;99.90;;;;;;5023869;28;19924;-81
2022/09/22 12:13:24;;;;;;;;;;;18.30;99.90;;;;;;5015501;28;19924;-80
2022/09/22 12:16:07;;;;;;;;;;;18.40;99.90;;;;;;5028789;28;19924;-82
2022/09/22 12:18:51;;;;;;;;;;;18.50;99.90;;;;;;5037409;28;20262;-79
2022/09/22 12:21:40;;;;;;;;;;;18.60;99.90;;;;;;5044467;28;19925;-80
2022/09/22 12:24:19;;;;;;;;;;;18.70;99.90;;;;;;5037527;28;19920;-79
2022/09/22 12:26:46;;;;;;;;;;;18.80;99.90;;;;;;5045498;28;19950;-78
2022/09/22 12:29:15;;;;;;;;;;;18.90;99.90;;;;;;5048443;28;20034;-78
2022/09/22 12:31:46;;;;;;;;;;;18.90;99.90;;;;;;5026341;28;19990;-81
2022/09/22 12:34:28;;;;;;;;;;;18.80;99.70;;;;;;5038635;28;19924;-85
2022/09/22 12:36:58;;;;;;;;;;;18.70;99.80;;;;;;5037706;28;20395;-80
2022/09/22 12:39:26;;;;;;;;;;;18.50;98.50;;;;;;5039407;28;19974;-78
2022/09/22 12:42:17;;;;;;;;;;;18.50;99.90;;;;;;5023500;28;19924;-79
2022/09/22 12:44:50;;;;;;;;;;;18.50;99.90;;;;;;5040314;28;20024;-76
2022/09/22 12:47:19;;;;;;;;;;;18.50;98.60;;;;;;5037470;28;20075;-80
2022/09/22 12:49:50;;;;;;;;;;;18.40;97.60;;;;;;5046230;28;19941;-83
2022/09/22 12:52:38;;;;;;;;;;;18.30;98.30;;;;;;5045663;28;19925;-79
2022/09/22 12:55:23;;;;;;;;;;;18.20;98.70;;;;;;5044928;28;19940;-78
2022/09/22 12:57:50;;;;;;;;;;;18.10;97.90;;;;;;5048073;28;19928;-81
2022/09/22 13:00:34;;;;;;;;;;;18.10;98.40;;;;;;5016278;28;20016;-79
2022/09/22 13:03:20;;;;;;;;;;;18.10;98.00;;;;;;5046454;28;19926;-80
2022/09/22 13:05:46;;;;;;;;;;;18.10;99.60;;;;;;5023371;28;19925;-79
2022/09/22 13:08:15;;;;;;;;;;;18.10;99.40;;;;;;5021245;28;19935;-80
2022/09/22 13:10:48;;;;;;;;;;;18.20;99.10;;;;;;5032080;28;19929;-79
2022/09/22 13:13:32;;;;;;;;;;;18.20;97.80;;;;;;5039642;28;19939;-79
2022/09/22 13:16:02;;;;;;;;;;;18.20;98.90;;;;;;5044404;28;19929;-77
2022/09/22 13:18:30;;;;;;;;;;;18.20;96.70;;;;;;5046528;28;19947;-89
2022/09/22 13:21:00;;;;;;;;;;;18.10;98.30;;;;;;5038655;28;19928;-84
2022/09/22 13:23:27;;;;;;;;;;;17.90;98.00;;;;;;5045292;28;19924;-82
2022/09/22 13:25:53;;;;;;;;;;;17.80;99.10;;;;;;5026859;28;19952;-79
2022/09/22 13:28:38;;;;;;;;;;;17.80;99.90;;;;;;5045534;28;19928;-78
2022/09/22 13:31:10;;;;;;;;;;;17.90;99.90;;;;;;5029842;28;19958;-82
2022/09/22 13:33:36;;;;;;;;;;;17.90;99.70;;;;;;5046968;28;19944;-79
2022/09/22 13:36:08;;;;;;;;;;;17.90;98.50;;;;;;5047673;28;20016;-80
2022/09/22 13:38:37;;;;;;;;;;;17.90;99.30;;;;;;5033350;28;20468;-78
2022/09/22 13:41:04;;;;;;;;;;;17.90;99.90;;;;;;5025861;28;19933;-80
2022/09/22 13:43:36;;;;;;;;;;;17.80;99.90;;;;;;5043945;28;19924;-80
2022/09/22 13:46:03;;;;;;;;;;;17.80;99.50;;;;;;5040707;28;19955;-79
2022/09/22 13:48:35;;;;;;;;;;;17.80;99.00;;;;;;5033974;28;19933;-81
2022/09/22 13:51:13;;;;;;;;;;;17.80;97.90;;;;;;5048674;28;20112;-78
2022/09/22 13:53:41;;;;;;;;;;;17.70;98.90;;;;;;5042837;28;19924;-76
2022/09/22 13:56:13;;;;;;;;;;;17.80;97.90;;;;;;5043791;28;20710;-78
2022/09/22 13:58:40;;;;;;;;;;;17.60;98.50;;;;;;5030929;28;20023;-81
2022/09/22 14:01:18;;;;;;;;;;;17.60;98.60;;;;;;5047573;28;19980;-79
2022/09/22 14:03:44;;;;;;;;;;;17.50;99.20;;;;;;5033172;28;19959;-80
2022/09/22 14:06:37;;;;;;;;;;;17.40;99.50;;;;;;5033389;28;19925;-80
2022/09/22 14:09:03;;;;;;;;;;;17.30;99.90;;;;;;5001764;28;19932;-79
2022/09/22 14:11:31;;;;;;;;;;;17.20;99.90;;;;;;5015731;28;19928;-90
2022/09/22 14:13:58;;;;;;;;;;;17.10;99.90;;;;;;5029600;28;19936;-87
2022/09/22 14:16:38;;;;;;;;;;;17.00;99.90;;;;;;5040592;28;19937;-84
2022/09/22 14:19:28;;;;;;;;;;;16.90;99.90;;;;;;5044638;28;19933;-86
2022/09/22 14:21:58;;;;;;;;;;;16.90;99.90;;;;;;5030425;28;20333;-83
2022/09/22 14:24:26;;;;;;;;;;;16.90;99.90;;;;;;5049140;28;19929;-91
2022/09/22 14:27:05;;;;;;;;;;;17.00;99.90;;;;;;5047059;28;20301;-81
2022/09/22 14:29:32;;;;;;;;;;;16.90;99.90;;;;;;5052848;28;19981;-91
2022/09/22 14:32:16;;;;;;;;;;;16.90;99.90;;;;;;5048889;28;19932;-83
2022/09/22 14:34:47;;;;;;;;;;;16.90;99.90;;;;;;5048504;28;20461;-86
2022/09/22 14:37:30;;;;;;;;;;;17.00;99.90;;;;;;5031145;28;19933;-84
2022/09/22 14:39:59;;;;;;;;;;;16.90;99.90;;;;;;5033390;28;19928;-80
2022/09/22 14:42:28;;;;;;;;;;;16.90;99.90;;;;;;5049310;28;19929;-90
2022/09/22 14:45:09;;;;;;;;;;;16.90;99.90;;;;;;5038500;28;19933;-81
2022/09/22 14:47:39;;;;;;;;;;;16.80;99.90;;;;;;5045643;28;20399;-83
2022/09/22 14:50:12;;;;;;;;;;;16.80;99.90;;;;;;5049211;28;20402;-83
2022/09/22 14:52:40;;;;;;;;;;;16.80;99.90;;;;;;5045456;28;19935;-81
2022/09/22 14:55:08;;;;;;;;;;;16.70;99.90;;;;;;5034118;28;19971;-76
2022/09/22 14:57:34;;;;;;;;;;;16.70;99.90;;;;;;5041003;28;19991;-84
2022/09/22 15:02:48;;;;;;;;;;;16.60;99.90;;;;;;5039487;28;19925;-78
2022/09/22 15:05:24;;;;;;;;;;;16.60;99.90;;;;;;5048770;28;19920;-83
2022/09/22 15:07:50;;;;;;;;;;;16.60;99.90;;;;;;5044925;28;20377;-83
2022/09/22 15:10:24;;;;;;;;;;;16.50;99.90;;;;;;5028828;28;19940;-83